Caner Karaloglu — TCUL5 — position and weather

sailwx.info

Track history (hours):
 
Tides and Currents Weather Stations Pressure Air Temp Water Temp Dewpoint Dewpoint Depression Visibility Wind Speed Wind Dir Waves Ship Positions

Caner Karaloglu

Last reported at 2014-Aug-01 01:34 UTC. Time now 2014-Aug-01 01:44 UTC.
Position N 33°11' E 033°53'.

Length 70 m; draft 4.3 m.

Type: Tanker. MMSI: 271043140.

Date/timePositionNaut miles runAvg speedWind from/ knotsBaromVisibWave heightAir tempDewpointWater temp
2014-Aug-01 01:34N 33°11' E 033°53'7 7.5
2014-Aug-01 00:33N 33°06' E 033°59'8 6.6
2014-Jul-31 23:25N 33°01' E 034°06'6 6.9
2014-Jul-31 22:33N 33°01' E 034°13'7 7.2
2014-Jul-31 21:33N 32°60' E 034°22'7 7.2
2014-Jul-31 20:31N 32°58' E 034°30'7 7.4
2014-Jul-31 19:33N 32°57' E 034°39'10 7.8
2014-Jul-31 18:19N 32°55' E 034°50'8 7.9
2014-Jul-31 17:21N 32°52' E 034°59'4 4.1
2014-Jul-31 16:22N 32°49' E 035°02'5 0.1
2014-Jul-30 08:07N 32°52' E 034°58'5 8.4
2014-Jul-30 07:33N 32°54' E 034°53'9 8.7
2014-Jul-30 06:33N 32°55' E 034°42'40 9.0
2014-Jul-30 02:09N 33°05' E 033°57'5 8.6
2014-Jul-30 01:33N 33°08' E 033°52'8 8.4
2014-Jul-30 00:33N 33°14' E 033°44'8 8.2
2014-Jul-29 23:33N 33°20' E 033°37'8 8.2
2014-Jul-29 22:31N 33°26' E 033°30'8 8.1
2014-Jul-29 21:33N 33°31' E 033°24'8 8.3
2014-Jul-29 20:33N 33°38' E 033°18'8 8.4
2014-Jul-29 19:33N 33°44' E 033°11'9 8.6
2014-Jul-29 18:33N 33°51' E 033°04'9 8.7
2014-Jul-29 17:33N 33°57' E 032°57'9 8.8
2014-Jul-29 16:33N 34°04' E 032°50'9 8.9
2014-Jul-29 15:33N 34°10' E 032°42'9 8.8
2014-Jul-29 14:33N 34°16' E 032°35'9 8.8
2014-Jul-29 13:33N 34°23' E 032°27'9 8.8
2014-Jul-29 12:33N 34°29' E 032°20'9 8.8
2014-Jul-29 11:31N 34°35' E 032°12'309 7.7
2014-Jul-27 19:32N 36°40' E 026°24'8 8.3
2014-Jul-27 18:33N 36°41' E 026°14'8 8.0
2014-Jul-27 17:33N 36°42' E 026°04'8 7.9
2014-Jul-27 16:33N 36°42' E 025°54'8 8.0
2014-Jul-27 15:33N 36°44' E 025°45'8 8.1
2014-Jul-27 14:33N 36°46' E 025°35'8 8.3
2014-Jul-27 13:33N 36°48' E 025°25'8 8.3
2014-Jul-27 12:33N 36°50' E 025°15'8 8.2
2014-Jul-27 11:33N 36°52' E 025°05'8 7.9
2014-Jul-27 10:33N 36°54' E 024°56'8 8.3
2014-Jul-27 09:33N 37°00' E 024°48'8 8.1
2014-Jul-27 08:33N 37°06' E 024°41'8 8.3
2014-Jul-27 07:33N 37°12' E 024°34'28 8.5
2014-Jul-27 04:12N 37°27' E 024°04'6 8.9
2014-Jul-27 03:33N 37°31' E 023°58'9 8.7
2014-Jul-27 02:31N 37°36' E 023°49'8 8.4
2014-Jul-27 01:33N 37°42' E 023°41'9 8.5
2014-Jul-27 00:33N 37°49' E 023°36'8 8.5
2014-Jul-26 23:33N 37°51' E 023°25'16 1.0
2014-Jul-26 07:14N 37°55' E 023°05'10 5.4
2014-Jul-26 05:24N 37°52' E 023°18'7 8.1
2014-Jul-26 04:33N 37°51' E 023°26'8 8.4
2014-Jul-26 03:33N 37°51' E 023°37'8 8.0
2014-Jul-26 02:33N 37°45' E 023°43'8 7.9
2014-Jul-26 01:32N 37°39' E 023°49'35 8.1
2014-Jul-25 21:12N 37°16' E 024°24'6 8.8
2014-Jul-25 20:33N 37°14' E 024°30'8 8.4
2014-Jul-25 19:33N 37°09' E 024°39'9 8.6
2014-Jul-25 18:33N 37°03' E 024°46'9 8.7
2014-Jul-25 17:33N 36°57' E 024°54'8 7.7
2014-Jul-25 16:33N 36°53' E 025°02'9 8.6
2014-Jul-25 15:33N 36°50' E 025°12'9 8.5
2014-Jul-25 14:33N 36°48' E 025°23'9 8.4
2014-Jul-25 13:33N 36°46' E 025°33'9 8.5
2014-Jul-25 12:33N 36°44' E 025°44'8 8.2
2014-Jul-25 11:33N 36°43' E 025°53'9 8.5
2014-Jul-25 10:33N 36°42' E 026°04'9 8.7
2014-Jul-25 09:33N 36°41' E 026°15'8 8.1
2014-Jul-25 08:31N 36°40' E 026°25'8 8.0
2014-Jul-25 07:33N 36°39' E 026°35'8 8.3
2014-Jul-25 06:33N 36°38' E 026°45'308 7.8
2014-Jul-23 15:08N 34°37' E 032°33'4 7.2
2014-Jul-23 14:33N 34°36' E 032°38'7 6.8
2014-Jul-23 13:33N 34°33' E 032°45'7 6.6
2014-Jul-23 12:33N 34°31' E 032°53'7 6.8
2014-Jul-23 11:33N 34°31' E 033°01'8 7.6
2014-Jul-23 10:32N 34°35' E 033°09'8 7.7
2014-Jul-23 09:32N 34°39' E 033°18'8 8.6
2014-Jul-23 08:33N 34°42' E 033°27'9 8.7
2014-Jul-23 07:33N 34°46' E 033°37'  
Track history (hours):
 
Tides and Currents Weather Stations Pressure Air Temp Water Temp Dewpoint Dewpoint Depression Visibility Wind Speed Wind Dir Waves Ship Positions

Caner Karaloglu

Last reported at 2014-Aug-01 01:34 UTC. Time now 2014-Aug-01 01:44 UTC.
Position N 33°11' E 033°53'.

Length 70 m; draft 4.3 m.

Type: Tanker. MMSI: 271043140.

Date/timePositionNaut miles runAvg speedWind from/ knotsBaromVisibWave heightAir tempDewpointWater temp
2014-Aug-01 01:34N 33°11' E 033°53'7 7.5
2014-Aug-01 00:33N 33°06' E 033°59'8 6.6
2014-Jul-31 23:25N 33°01' E 034°06'6 6.9
2014-Jul-31 22:33N 33°01' E 034°13'7 7.2
2014-Jul-31 21:33N 32°60' E 034°22'7 7.2
2014-Jul-31 20:31N 32°58' E 034°30'7 7.4
2014-Jul-31 19:33N 32°57' E 034°39'10 7.8
2014-Jul-31 18:19N 32°55' E 034°50'8 7.9
2014-Jul-31 17:21N 32°52' E 034°59'4 4.1
2014-Jul-31 16:22N 32°49' E 035°02'5 0.1
2014-Jul-30 08:07N 32°52' E 034°58'5 8.4
2014-Jul-30 07:33N 32°54' E 034°53'9 8.7
2014-Jul-30 06:33N 32°55' E 034°42'40 9.0
2014-Jul-30 02:09N 33°05' E 033°57'5 8.6
2014-Jul-30 01:33N 33°08' E 033°52'8 8.4
2014-Jul-30 00:33N 33°14' E 033°44'8 8.2
2014-Jul-29 23:33N 33°20' E 033°37'8 8.2
2014-Jul-29 22:31N 33°26' E 033°30'8 8.1
2014-Jul-29 21:33N 33°31' E 033°24'8 8.3
2014-Jul-29 20:33N 33°38' E 033°18'8 8.4
2014-Jul-29 19:33N 33°44' E 033°11'9 8.6
2014-Jul-29 18:33N 33°51' E 033°04'9 8.7
2014-Jul-29 17:33N 33°57' E 032°57'9 8.8
2014-Jul-29 16:33N 34°04' E 032°50'9 8.9
2014-Jul-29 15:33N 34°10' E 032°42'9 8.8
2014-Jul-29 14:33N 34°16' E 032°35'9 8.8
2014-Jul-29 13:33N 34°23' E 032°27'9 8.8
2014-Jul-29 12:33N 34°29' E 032°20'9 8.8
2014-Jul-29 11:31N 34°35' E 032°12'309 7.7
2014-Jul-27 19:32N 36°40' E 026°24'8 8.3
2014-Jul-27 18:33N 36°41' E 026°14'8 8.0
2014-Jul-27 17:33N 36°42' E 026°04'8 7.9
2014-Jul-27 16:33N 36°42' E 025°54'8 8.0
2014-Jul-27 15:33N 36°44' E 025°45'8 8.1
2014-Jul-27 14:33N 36°46' E 025°35'8 8.3
2014-Jul-27 13:33N 36°48' E 025°25'8 8.3
2014-Jul-27 12:33N 36°50' E 025°15'8 8.2
2014-Jul-27 11:33N 36°52' E 025°05'8 7.9
2014-Jul-27 10:33N 36°54' E 024°56'8 8.3
2014-Jul-27 09:33N 37°00' E 024°48'8 8.1
2014-Jul-27 08:33N 37°06' E 024°41'8 8.3
2014-Jul-27 07:33N 37°12' E 024°34'28 8.5
2014-Jul-27 04:12N 37°27' E 024°04'6 8.9
2014-Jul-27 03:33N 37°31' E 023°58'9 8.7
2014-Jul-27 02:31N 37°36' E 023°49'8 8.4
2014-Jul-27 01:33N 37°42' E 023°41'9 8.5
2014-Jul-27 00:33N 37°49' E 023°36'8 8.5
2014-Jul-26 23:33N 37°51' E 023°25'16 1.0
2014-Jul-26 07:14N 37°55' E 023°05'10 5.4
2014-Jul-26 05:24N 37°52' E 023°18'7 8.1
2014-Jul-26 04:33N 37°51' E 023°26'8 8.4
2014-Jul-26 03:33N 37°51' E 023°37'8 8.0
2014-Jul-26 02:33N 37°45' E 023°43'8 7.9
2014-Jul-26 01:32N 37°39' E 023°49'35 8.1
2014-Jul-25 21:12N 37°16' E 024°24'6 8.8
2014-Jul-25 20:33N 37°14' E 024°30'8 8.4
2014-Jul-25 19:33N 37°09' E 024°39'9 8.6
2014-Jul-25 18:33N 37°03' E 024°46'9 8.7
2014-Jul-25 17:33N 36°57' E 024°54'8 7.7
2014-Jul-25 16:33N 36°53' E 025°02'9 8.6
2014-Jul-25 15:33N 36°50' E 025°12'9 8.5
2014-Jul-25 14:33N 36°48' E 025°23'9 8.4
2014-Jul-25 13:33N 36°46' E 025°33'9 8.5
2014-Jul-25 12:33N 36°44' E 025°44'8 8.2
2014-Jul-25 11:33N 36°43' E 025°53'9 8.5
2014-Jul-25 10:33N 36°42' E 026°04'9 8.7
2014-Jul-25 09:33N 36°41' E 026°15'8 8.1
2014-Jul-25 08:31N 36°40' E 026°25'8 8.0
2014-Jul-25 07:33N 36°39' E 026°35'8 8.3
2014-Jul-25 06:33N 36°38' E 026°45'308 7.8
2014-Jul-23 15:08N 34°37' E 032°33'4 7.2
2014-Jul-23 14:33N 34°36' E 032°38'7 6.8
2014-Jul-23 13:33N 34°33' E 032°45'7 6.6
2014-Jul-23 12:33N 34°31' E 032°53'7 6.8
2014-Jul-23 11:33N 34°31' E 033°01'8 7.6
2014-Jul-23 10:32N 34°35' E 033°09'8 7.7
2014-Jul-23 09:32N 34°39' E 033°18'8 8.6
2014-Jul-23 08:33N 34°42' E 033°27'9 8.7
2014-Jul-23 07:33N 34°46' E 033°37'  

Dump ship's entire track history